sensor_id;sensor_type;location;lat;lon;timestamp;P1;P2;P0
64697;PMS5003;51124;53.394;-6.294;2023-12-20T00:02:08;8;8;
64697;PMS5003;51124;53.394;-6.294;2023-12-20T00:04:36;9;7;
64697;PMS5003;51124;53.394;-6.294;2023-12-20T00:07:03;8;8;
64697;PMS5003;51124;53.394;-6.294;2023-12-20T00:09:31;8;8;
64697;PMS5003;51124;53.394;-6.294;2023-12-20T00:11:58;7;7;
64697;PMS5003;51124;53.394;-6.294;2023-12-20T00:14:26;9;9;
64697;PMS5003;51124;53.394;-6.294;2023-12-20T00:16:53;8;8;
64697;PMS5003;51124;53.394;-6.294;2023-12-20T00:19:21;11;10;
64697;PMS5003;51124;53.394;-6.294;2023-12-20T00:21:49;14;8;
64697;PMS5003;51124;53.394;-6.294;2023-12-20T00:24:16;10;9;
64697;PMS5003;51124;53.394;-6.294;2023-12-20T00:26:44;8;7;
64697;PMS5003;51124;53.394;-6.294;2023-12-20T00:29:12;6;6;
64697;PMS5003;51124;53.394;-6.294;2023-12-20T00:31:39;8;8;
64697;PMS5003;51124;53.394;-6.294;2023-12-20T00:34:07;11;8;
64697;PMS5003;51124;53.394;-6.294;2023-12-20T00:36:34;7;7;
64697;PMS5003;51124;53.394;-6.294;2023-12-20T00:39:02;11;8;
64697;PMS5003;51124;53.394;-6.294;2023-12-20T00:41:30;7;6;
64697;PMS5003;51124;53.394;-6.294;2023-12-20T00:43:57;6;6;
64697;PMS5003;51124;53.394;-6.294;2023-12-20T00:46:24;8;7;
64697;PMS5003;51124;53.394;-6.294;2023-12-20T00:48:52;10;8;
64697;PMS5003;51124;53.394;-6.294;2023-12-20T00:51:20;7;7;
64697;PMS5003;51124;53.394;-6.294;2023-12-20T00:53:49;9;8;
64697;PMS5003;51124;53.394;-6.294;2023-12-20T00:56:16;6;6;
64697;PMS5003;51124;53.394;-6.294;2023-12-20T00:58:43;10;8;
64697;PMS5003;51124;53.394;-6.294;2023-12-20T01:01:11;7;7;
64697;PMS5003;51124;53.394;-6.294;2023-12-20T01:03:38;8;6;
64697;PMS5003;51124;53.394;-6.294;2023-12-20T01:06:05;9;7;
64697;PMS5003;51124;53.394;-6.294;2023-12-20T01:08:33;9;7;
64697;PMS5003;51124;53.394;-6.294;2023-12-20T01:11:03;6;6;
64697;PMS5003;51124;53.394;-6.294;2023-12-20T01:13:31;8;7;
64697;PMS5003;51124;53.394;-6.294;2023-12-20T01:16:00;9;9;
64697;PMS5003;51124;53.394;-6.294;2023-12-20T01:18:27;9;7;
64697;PMS5003;51124;53.394;-6.294;2023-12-20T01:20:55;6;6;
64697;PMS5003;51124;53.394;-6.294;2023-12-20T01:23:26;9;7;
64697;PMS5003;51124;53.394;-6.294;2023-12-20T01:25:53;4;4;
64697;PMS5003;51124;53.394;-6.294;2023-12-20T01:28:21;10;6;
64697;PMS5003;51124;53.394;-6.294;2023-12-20T01:30:48;7;7;
64697;PMS5003;51124;53.394;-6.294;2023-12-20T01:33:15;6;6;
64697;PMS5003;51124;53.394;-6.294;2023-12-20T01:35:43;5;5;
64697;PMS5003;51124;53.394;-6.294;2023-12-20T01:38:10;7;5;
64697;PMS5003;51124;53.394;-6.294;2023-12-20T01:40:37;8;7;
64697;PMS5003;51124;53.394;-6.294;2023-12-20T01:43:06;6;6;
64697;PMS5003;51124;53.394;-6.294;2023-12-20T01:45:35;9;8;
64697;PMS5003;51124;53.394;-6.294;2023-12-20T01:48:02;5;5;
64697;PMS5003;51124;53.394;-6.294;2023-12-20T01:50:32;7;7;
64697;PMS5003;51124;53.394;-6.294;2023-12-20T01:53:03;6;5;
64697;PMS5003;51124;53.394;-6.294;2023-12-20T01:55:33;7;5;
64697;PMS5003;51124;53.394;-6.294;2023-12-20T01:58:03;8;7;
64697;PMS5003;51124;53.394;-6.294;2023-12-20T02:00:33;6;6;
64697;PMS5003;51124;53.394;-6.294;2023-12-20T02:03:01;7;6;
64697;PMS5003;51124;53.394;-6.294;2023-12-20T02:05:29;5;5;
64697;PMS5003;51124;53.394;-6.294;2023-12-20T02:07:57;6;6;
64697;PMS5003;51124;53.394;-6.294;2023-12-20T02:10:25;8;6;
64697;PMS5003;51124;53.394;-6.294;2023-12-20T02:12:53;4;4;
64697;PMS5003;51124;53.394;-6.294;2023-12-20T02:15:20;7;6;
64697;PMS5003;51124;53.394;-6.294;2023-12-20T02:17:48;5;5;
64697;PMS5003;51124;53.394;-6.294;2023-12-20T02:20:16;9;6;
64697;PMS5003;51124;53.394;-6.294;2023-12-20T02:22:43;5;5;
64697;PMS5003;51124;53.394;-6.294;2023-12-20T02:25:11;5;5;
64697;PMS5003;51124;53.394;-6.294;2023-12-20T02:27:38;6;6;
64697;PMS5003;51124;53.394;-6.294;2023-12-20T02:30:06;7;7;
64697;PMS5003;51124;53.394;-6.294;2023-12-20T02:32:34;6;6;
64697;PMS5003;51124;53.394;-6.294;2023-12-20T02:35:02;7;7;
64697;PMS5003;51124;53.394;-6.294;2023-12-20T02:37:30;8;6;
64697;PMS5003;51124;53.394;-6.294;2023-12-20T02:39:57;7;5;
64697;PMS5003;51124;53.394;-6.294;2023-12-20T02:42:25;8;6;
64697;PMS5003;51124;53.394;-6.294;2023-12-20T02:44:52;6;5;
64697;PMS5003;51124;53.394;-6.294;2023-12-20T02:47:19;6;5;
64697;PMS5003;51124;53.394;-6.294;2023-12-20T02:49:47;9;6;
64697;PMS5003;51124;53.394;-6.294;2023-12-20T02:52:14;6;5;
64697;PMS5003;51124;53.394;-6.294;2023-12-20T02:54:41;7;6;
64697;PMS5003;51124;53.394;-6.294;2023-12-20T02:57:09;6;5;
64697;PMS5003;51124;53.394;-6.294;2023-12-20T02:59:37;7;6;
64697;PMS5003;51124;53.394;-6.294;2023-12-20T03:02:04;5;5;
64697;PMS5003;51124;53.394;-6.294;2023-12-20T03:04:31;9;6;
64697;PMS5003;51124;53.394;-6.294;2023-12-20T03:06:59;4;4;
64697;PMS5003;51124;53.394;-6.294;2023-12-20T03:09:26;5;5;
64697;PMS5003;51124;53.394;-6.294;2023-12-20T03:11:54;4;4;
64697;PMS5003;51124;53.394;-6.294;2023-12-20T03:14:22;7;7;
64697;PMS5003;51124;53.394;-6.294;2023-12-20T03:16:49;5;4;
64697;PMS5003;51124;53.394;-6.294;2023-12-20T03:19:17;4;4;
64697;PMS5003;51124;53.394;-6.294;2023-12-20T03:21:45;6;4;
64697;PMS5003;51124;53.394;-6.294;2023-12-20T03:24:12;4;4;
64697;PMS5003;51124;53.394;-6.294;2023-12-20T03:26:40;5;5;
64697;PMS5003;51124;53.394;-6.294;2023-12-20T03:29:07;6;6;
64697;PMS5003;51124;53.394;-6.294;2023-12-20T03:31:35;6;6;
64697;PMS5003;51124;53.394;-6.294;2023-12-20T03:34:03;8;6;
64697;PMS5003;51124;53.394;-6.294;2023-12-20T03:36:30;4;4;
64697;PMS5003;51124;53.394;-6.294;2023-12-20T03:38:58;5;4;
64697;PMS5003;51124;53.394;-6.294;2023-12-20T03:41:25;5;5;
64697;PMS5003;51124;53.394;-6.294;2023-12-20T03:43:53;4;4;
64697;PMS5003;51124;53.394;-6.294;2023-12-20T03:46:21;4;4;
64697;PMS5003;51124;53.394;-6.294;2023-12-20T03:48:48;8;5;
64697;PMS5003;51124;53.394;-6.294;2023-12-20T03:51:15;5;5;
64697;PMS5003;51124;53.394;-6.294;2023-12-20T03:53:43;5;5;
64697;PMS5003;51124;53.394;-6.294;2023-12-20T03:56:11;5;5;
64697;PMS5003;51124;53.394;-6.294;2023-12-20T03:58:38;5;5;
64697;PMS5003;51124;53.394;-6.294;2023-12-20T04:01:08;5;5;
64697;PMS5003;51124;53.394;-6.294;2023-12-20T04:03:36;3;3;
64697;PMS5003;51124;53.394;-6.294;2023-12-20T04:06:03;2;2;
64697;PMS5003;51124;53.394;-6.294;2023-12-20T04:08:30;5;4;
64697;PMS5003;51124;53.394;-6.294;2023-12-20T04:10:58;4;4;
64697;PMS5003;51124;53.394;-6.294;2023-12-20T04:13:25;4;3;
64697;PMS5003;51124;53.394;-6.294;2023-12-20T04:15:53;3;3;
64697;PMS5003;51124;53.394;-6.294;2023-12-20T04:18:20;5;4;
64697;PMS5003;51124;53.394;-6.294;2023-12-20T04:20:47;3;3;
64697;PMS5003;51124;53.394;-6.294;2023-12-20T04:23:15;5;5;
64697;PMS5003;51124;53.394;-6.294;2023-12-20T04:25:42;6;4;
64697;PMS5003;51124;53.394;-6.294;2023-12-20T04:28:09;4;4;
64697;PMS5003;51124;53.394;-6.294;2023-12-20T04:30:37;3;3;
64697;PMS5003;51124;53.394;-6.294;2023-12-20T04:33:04;4;4;
64697;PMS5003;51124;53.394;-6.294;2023-12-20T04:35:31;3;3;
64697;PMS5003;51124;53.394;-6.294;2023-12-20T04:37:59;4;4;
64697;PMS5003;51124;53.394;-6.294;2023-12-20T04:40:26;3;3;
64697;PMS5003;51124;53.394;-6.294;2023-12-20T04:42:54;6;4;
64697;PMS5003;51124;53.394;-6.294;2023-12-20T04:45:21;4;3;
64697;PMS5003;51124;53.394;-6.294;2023-12-20T04:47:48;5;5;
64697;PMS5003;51124;53.394;-6.294;2023-12-20T04:50:16;5;5;
64697;PMS5003;51124;53.394;-6.294;2023-12-20T04:52:43;5;5;
64697;PMS5003;51124;53.394;-6.294;2023-12-20T04:55:11;4;4;
64697;PMS5003;51124;53.394;-6.294;2023-12-20T04:57:38;6;6;
64697;PMS5003;51124;53.394;-6.294;2023-12-20T05:00:07;5;3;
64697;PMS5003;51124;53.394;-6.294;2023-12-20T05:02:35;3;3;
64697;PMS5003;51124;53.394;-6.294;2023-12-20T05:05:02;4;4;
64697;PMS5003;51124;53.394;-6.294;2023-12-20T05:07:30;2;2;
64697;PMS5003;51124;53.394;-6.294;2023-12-20T05:09:58;3;3;
64697;PMS5003;51124;53.394;-6.294;2023-12-20T05:12:25;3;3;
64697;PMS5003;51124;53.394;-6.294;2023-12-20T05:14:52;3;3;
64697;PMS5003;51124;53.394;-6.294;2023-12-20T05:17:20;3;2;
64697;PMS5003;51124;53.394;-6.294;2023-12-20T05:19:47;3;1;
64697;PMS5003;51124;53.394;-6.294;2023-12-20T05:22:15;4;3;
64697;PMS5003;51124;53.394;-6.294;2023-12-20T05:24:43;3;3;
64697;PMS5003;51124;53.394;-6.294;2023-12-20T05:27:10;3;3;
64697;PMS5003;51124;53.394;-6.294;2023-12-20T05:29:38;4;4;
64697;PMS5003;51124;53.394;-6.294;2023-12-20T05:32:05;5;4;
64697;PMS5003;51124;53.394;-6.294;2023-12-20T05:34:33;3;3;
64697;PMS5003;51124;53.394;-6.294;2023-12-20T05:37:00;5;4;
64697;PMS5003;51124;53.394;-6.294;2023-12-20T05:39:28;4;3;
64697;PMS5003;51124;53.394;-6.294;2023-12-20T05:41:55;4;3;
64697;PMS5003;51124;53.394;-6.294;2023-12-20T05:44:23;3;3;
64697;PMS5003;51124;53.394;-6.294;2023-12-20T05:46:50;3;1;
64697;PMS5003;51124;53.394;-6.294;2023-12-20T05:49:17;4;3;
64697;PMS5003;51124;53.394;-6.294;2023-12-20T05:51:45;4;3;
64697;PMS5003;51124;53.394;-6.294;2023-12-20T05:54:12;4;2;
64697;PMS5003;51124;53.394;-6.294;2023-12-20T05:56:39;3;3;
64697;PMS5003;51124;53.394;-6.294;2023-12-20T05:59:07;5;3;
64697;PMS5003;51124;53.394;-6.294;2023-12-20T06:01:35;3;3;
64697;PMS5003;51124;53.394;-6.294;2023-12-20T06:04:03;3;3;
64697;PMS5003;51124;53.394;-6.294;2023-12-20T06:06:30;3;2;
64697;PMS5003;51124;53.394;-6.294;2023-12-20T06:08:58;4;2;
64697;PMS5003;51124;53.394;-6.294;2023-12-20T06:11:25;3;3;
64697;PMS5003;51124;53.394;-6.294;2023-12-20T06:13:53;4;4;
64697;PMS5003;51124;53.394;-6.294;2023-12-20T06:16:21;4;2;
64697;PMS5003;51124;53.394;-6.294;2023-12-20T06:18:48;3;2;
64697;PMS5003;51124;53.394;-6.294;2023-12-20T06:21:16;5;5;
64697;PMS5003;51124;53.394;-6.294;2023-12-20T06:23:43;4;4;
64697;PMS5003;51124;53.394;-6.294;2023-12-20T06:26:11;5;3;
64697;PMS5003;51124;53.394;-6.294;2023-12-20T06:28:39;2;2;
64697;PMS5003;51124;53.394;-6.294;2023-12-20T06:31:06;3;3;
64697;PMS5003;51124;53.394;-6.294;2023-12-20T06:33:34;2;2;
64697;PMS5003;51124;53.394;-6.294;2023-12-20T06:36:02;2;2;
64697;PMS5003;51124;53.394;-6.294;2023-12-20T06:38:29;3;3;
64697;PMS5003;51124;53.394;-6.294;2023-12-20T06:40:57;2;2;
64697;PMS5003;51124;53.394;-6.294;2023-12-20T06:43:24;3;3;
64697;PMS5003;51124;53.394;-6.294;2023-12-20T06:45:52;4;2;
64697;PMS5003;51124;53.394;-6.294;2023-12-20T06:48:20;5;3;
64697;PMS5003;51124;53.394;-6.294;2023-12-20T06:50:47;2;2;
64697;PMS5003;51124;53.394;-6.294;2023-12-20T06:53:15;4;2;
64697;PMS5003;51124;53.394;-6.294;2023-12-20T06:55:42;4;2;
64697;PMS5003;51124;53.394;-6.294;2023-12-20T06:58:10;5;4;
64697;PMS5003;51124;53.394;-6.294;2023-12-20T07:00:37;3;3;
64697;PMS5003;51124;53.394;-6.294;2023-12-20T07:03:05;2;2;
64697;PMS5003;51124;53.394;-6.294;2023-12-20T07:05:34;3;2;
64697;PMS5003;51124;53.394;-6.294;2023-12-20T07:08:01;1;1;
64697;PMS5003;51124;53.394;-6.294;2023-12-20T07:10:29;2;2;
64697;PMS5003;51124;53.394;-6.294;2023-12-20T07:12:56;1;1;
64697;PMS5003;51124;53.394;-6.294;2023-12-20T07:15:24;3;2;
64697;PMS5003;51124;53.394;-6.294;2023-12-20T07:17:51;2;2;
64697;PMS5003;51124;53.394;-6.294;2023-12-20T07:20:19;1;1;
64697;PMS5003;51124;53.394;-6.294;2023-12-20T07:22:46;2;2;
64697;PMS5003;51124;53.394;-6.294;2023-12-20T07:25:13;1;1;
64697;PMS5003;51124;53.394;-6.294;2023-12-20T07:27:41;2;2;
64697;PMS5003;51124;53.394;-6.294;2023-12-20T07:30:08;2;2;
64697;PMS5003;51124;53.394;-6.294;2023-12-20T07:32:36;2;2;
64697;PMS5003;51124;53.394;-6.294;2023-12-20T07:35:04;1;1;
64697;PMS5003;51124;53.394;-6.294;2023-12-20T07:37:32;1;1;
64697;PMS5003;51124;53.394;-6.294;2023-12-20T07:39:59;2;2;
64697;PMS5003;51124;53.394;-6.294;2023-12-20T07:42:26;1;1;
64697;PMS5003;51124;53.394;-6.294;2023-12-20T07:44:54;3;2;
64697;PMS5003;51124;53.394;-6.294;2023-12-20T07:47:21;1;1;
64697;PMS5003;51124;53.394;-6.294;2023-12-20T07:49:49;2;2;
64697;PMS5003;51124;53.394;-6.294;2023-12-20T07:52:16;2;2;
64697;PMS5003;51124;53.394;-6.294;2023-12-20T07:54:43;3;2;
64697;PMS5003;51124;53.394;-6.294;2023-12-20T07:57:11;2;2;
64697;PMS5003;51124;53.394;-6.294;2023-12-20T07:59:39;3;3;
64697;PMS5003;51124;53.394;-6.294;2023-12-20T08:02:06;2;2;
64697;PMS5003;51124;53.394;-6.294;2023-12-20T08:04:34;4;2;
64697;PMS5003;51124;53.394;-6.294;2023-12-20T08:07:02;3;3;
64697;PMS5003;51124;53.394;-6.294;2023-12-20T08:09:30;0;0;
64697;PMS5003;51124;53.394;-6.294;2023-12-20T08:11:58;2;2;
64697;PMS5003;51124;53.394;-6.294;2023-12-20T08:14:25;0;0;
64697;PMS5003;51124;53.394;-6.294;2023-12-20T08:16:53;1;1;
64697;PMS5003;51124;53.394;-6.294;2023-12-20T08:19:21;3;3;
64697;PMS5003;51124;53.394;-6.294;2023-12-20T08:21:48;2;2;
64697;PMS5003;51124;53.394;-6.294;2023-12-20T08:24:16;2;2;
64697;PMS5003;51124;53.394;-6.294;2023-12-20T08:26:43;3;3;
64697;PMS5003;51124;53.394;-6.294;2023-12-20T08:29:12;1;1;
64697;PMS5003;51124;53.394;-6.294;2023-12-20T08:31:39;1;1;
64697;PMS5003;51124;53.394;-6.294;2023-12-20T08:34:07;2;2;
64697;PMS5003;51124;53.394;-6.294;2023-12-20T08:36:35;4;2;
64697;PMS5003;51124;53.394;-6.294;2023-12-20T08:39:02;1;1;
64697;PMS5003;51124;53.394;-6.294;2023-12-20T08:41:30;1;1;
64697;PMS5003;51124;53.394;-6.294;2023-12-20T08:43:57;3;1;
64697;PMS5003;51124;53.394;-6.294;2023-12-20T08:46:24;2;2;
64697;PMS5003;51124;53.394;-6.294;2023-12-20T08:48:52;2;2;
64697;PMS5003;51124;53.394;-6.294;2023-12-20T08:51:19;1;1;
64697;PMS5003;51124;53.394;-6.294;2023-12-20T08:53:47;2;2;
64697;PMS5003;51124;53.394;-6.294;2023-12-20T08:56:14;0;0;
64697;PMS5003;51124;53.394;-6.294;2023-12-20T08:58:42;1;1;
64697;PMS5003;51124;53.394;-6.294;2023-12-20T09:01:10;2;1;
64697;PMS5003;51124;53.394;-6.294;2023-12-20T09:03:37;3;1;
64697;PMS5003;51124;53.394;-6.294;2023-12-20T09:06:05;2;1;
64697;PMS5003;51124;53.394;-6.294;2023-12-20T09:08:32;2;1;
64697;PMS5003;51124;53.394;-6.294;2023-12-20T09:11:00;1;1;
64697;PMS5003;51124;53.394;-6.294;2023-12-20T09:13:28;1;1;
64697;PMS5003;51124;53.394;-6.294;2023-12-20T09:15:55;2;2;
64697;PMS5003;51124;53.394;-6.294;2023-12-20T09:18:23;1;1;
64697;PMS5003;51124;53.394;-6.294;2023-12-20T09:20:51;2;1;
64697;PMS5003;51124;53.394;-6.294;2023-12-20T09:23:19;1;1;
64697;PMS5003;51124;53.394;-6.294;2023-12-20T09:25:46;3;3;
64697;PMS5003;51124;53.394;-6.294;2023-12-20T09:28:14;2;2;
64697;PMS5003;51124;53.394;-6.294;2023-12-20T09:30:42;2;2;
64697;PMS5003;51124;53.394;-6.294;2023-12-20T09:33:09;2;2;
64697;PMS5003;51124;53.394;-6.294;2023-12-20T09:35:37;2;1;
64697;PMS5003;51124;53.394;-6.294;2023-12-20T09:38:04;2;2;
64697;PMS5003;51124;53.394;-6.294;2023-12-20T09:40:33;1;1;
64697;PMS5003;51124;53.394;-6.294;2023-12-20T09:43:08;4;1;
64697;PMS5003;51124;53.394;-6.294;2023-12-20T09:45:39;1;1;
64697;PMS5003;51124;53.394;-6.294;2023-12-20T09:48:11;1;1;
64697;PMS5003;51124;53.394;-6.294;2023-12-20T09:50:42;0;0;
64697;PMS5003;51124;53.394;-6.294;2023-12-20T09:53:10;0;0;
64697;PMS5003;51124;53.394;-6.294;2023-12-20T09:55:40;1;1;
64697;PMS5003;51124;53.394;-6.294;2023-12-20T09:58:08;3;3;
64697;PMS5003;51124;53.394;-6.294;2023-12-20T10:00:36;0;0;
64697;PMS5003;51124;53.394;-6.294;2023-12-20T10:03:03;1;1;
64697;PMS5003;51124;53.394;-6.294;2023-12-20T10:05:33;3;1;
64697;PMS5003;51124;53.394;-6.294;2023-12-20T10:08:01;1;1;
64697;PMS5003;51124;53.394;-6.294;2023-12-20T10:10:29;3;3;
64697;PMS5003;51124;53.394;-6.294;2023-12-20T10:13:05;2;2;
64697;PMS5003;51124;53.394;-6.294;2023-12-20T10:15:23;3;3;
64697;PMS5003;51124;53.394;-6.294;2023-12-20T10:17:50;3;1;
64697;PMS5003;51124;53.394;-6.294;2023-12-20T10:20:17;2;2;
64697;PMS5003;51124;53.394;-6.294;2023-12-20T10:22:45;2;2;
64697;PMS5003;51124;53.394;-6.294;2023-12-20T10:25:12;2;2;
64697;PMS5003;51124;53.394;-6.294;2023-12-20T10:27:40;0;0;
64697;PMS5003;51124;53.394;-6.294;2023-12-20T10:30:08;1;1;
64697;PMS5003;51124;53.394;-6.294;2023-12-20T10:32:36;1;1;
64697;PMS5003;51124;53.394;-6.294;2023-12-20T10:35:03;1;1;
64697;PMS5003;51124;53.394;-6.294;2023-12-20T10:37:31;2;2;
64697;PMS5003;51124;53.394;-6.294;2023-12-20T10:40:03;3;3;
64697;PMS5003;51124;53.394;-6.294;2023-12-20T10:42:31;1;1;
64697;PMS5003;51124;53.394;-6.294;2023-12-20T10:45:00;0;0;
64697;PMS5003;51124;53.394;-6.294;2023-12-20T10:47:28;2;2;
64697;PMS5003;51124;53.394;-6.294;2023-12-20T10:50:02;2;2;
64697;PMS5003;51124;53.394;-6.294;2023-12-20T10:52:23;1;1;
64697;PMS5003;51124;53.394;-6.294;2023-12-20T10:54:52;3;1;
64697;PMS5003;51124;53.394;-6.294;2023-12-20T10:57:19;2;2;
64697;PMS5003;51124;53.394;-6.294;2023-12-20T10:59:51;1;1;
64697;PMS5003;51124;53.394;-6.294;2023-12-20T11:02:25;0;0;
64697;PMS5003;51124;53.394;-6.294;2023-12-20T11:04:56;1;1;
64697;PMS5003;51124;53.394;-6.294;2023-12-20T11:07:22;1;1;
64697;PMS5003;51124;53.394;-6.294;2023-12-20T11:09:55;2;2;
64697;PMS5003;51124;53.394;-6.294;2023-12-20T11:12:18;3;2;
64697;PMS5003;51124;53.394;-6.294;2023-12-20T11:14:45;1;1;
64697;PMS5003;51124;53.394;-6.294;2023-12-20T11:17:15;2;2;
64697;PMS5003;51124;53.394;-6.294;2023-12-20T11:20:03;2;2;
64697;PMS5003;51124;53.394;-6.294;2023-12-20T11:22:11;3;3;
64697;PMS5003;51124;53.394;-6.294;2023-12-20T11:24:42;0;0;
64697;PMS5003;51124;53.394;-6.294;2023-12-20T11:27:13;4;1;
64697;PMS5003;51124;53.394;-6.294;2023-12-20T11:29:43;2;1;
64697;PMS5003;51124;53.394;-6.294;2023-12-20T11:32:27;1;1;
64697;PMS5003;51124;53.394;-6.294;2023-12-20T11:34:35;2;1;
64697;PMS5003;51124;53.394;-6.294;2023-12-20T11:37:03;3;1;
64697;PMS5003;51124;53.394;-6.294;2023-12-20T11:39:32;3;2;
64697;PMS5003;51124;53.394;-6.294;2023-12-20T11:42:04;1;1;
64697;PMS5003;51124;53.394;-6.294;2023-12-20T11:44:31;1;1;
64697;PMS5003;51124;53.394;-6.294;2023-12-20T11:47:01;1;1;
64697;PMS5003;51124;53.394;-6.294;2023-12-20T11:49:29;1;1;
64697;PMS5003;51124;53.394;-6.294;2023-12-20T11:51:56;2;1;
64697;PMS5003;51124;53.394;-6.294;2023-12-20T11:54:23;2;2;
64697;PMS5003;51124;53.394;-6.294;2023-12-20T11:56:51;2;1;
64697;PMS5003;51124;53.394;-6.294;2023-12-20T11:59:18;1;1;
64697;PMS5003;51124;53.394;-6.294;2023-12-20T12:01:49;0;0;
64697;PMS5003;51124;53.394;-6.294;2023-12-20T12:04:16;2;2;
64697;PMS5003;51124;53.394;-6.294;2023-12-20T12:06:43;2;1;
64697;PMS5003;51124;53.394;-6.294;2023-12-20T12:09:11;1;1;
64697;PMS5003;51124;53.394;-6.294;2023-12-20T12:11:39;1;1;
64697;PMS5003;51124;53.394;-6.294;2023-12-20T12:14:06;0;0;
64697;PMS5003;51124;53.394;-6.294;2023-12-20T12:16:34;2;1;
64697;PMS5003;51124;53.394;-6.294;2023-12-20T12:19:02;1;1;
64697;PMS5003;51124;53.394;-6.294;2023-12-20T12:21:30;1;1;
64697;PMS5003;51124;53.394;-6.294;2023-12-20T12:24:05;3;3;
64697;PMS5003;51124;53.394;-6.294;2023-12-20T12:26:24;3;3;
64697;PMS5003;51124;53.394;-6.294;2023-12-20T12:28:55;1;1;
64697;PMS5003;51124;53.394;-6.294;2023-12-20T12:31:22;0;0;
64697;PMS5003;51124;53.394;-6.294;2023-12-20T12:33:50;1;1;
64697;PMS5003;51124;53.394;-6.294;2023-12-20T12:36:18;1;1;
64697;PMS5003;51124;53.394;-6.294;2023-12-20T12:38:45;1;1;
64697;PMS5003;51124;53.394;-6.294;2023-12-20T12:41:13;3;1;
64697;PMS5003;51124;53.394;-6.294;2023-12-20T12:43:41;1;1;
64697;PMS5003;51124;53.394;-6.294;2023-12-20T12:46:09;1;1;
64697;PMS5003;51124;53.394;-6.294;2023-12-20T12:48:36;1;1;
64697;PMS5003;51124;53.394;-6.294;2023-12-20T12:51:04;1;1;
64697;PMS5003;51124;53.394;-6.294;2023-12-20T12:53:32;2;0;
64697;PMS5003;51124;53.394;-6.294;2023-12-20T12:56:00;3;1;
64697;PMS5003;51124;53.394;-6.294;2023-12-20T12:58:28;1;1;
64697;PMS5003;51124;53.394;-6.294;2023-12-20T13:00:55;1;1;
64697;PMS5003;51124;53.394;-6.294;2023-12-20T13:03:23;1;1;
64697;PMS5003;51124;53.394;-6.294;2023-12-20T13:05:51;2;2;
64697;PMS5003;51124;53.394;-6.294;2023-12-20T13:08:18;1;1;
64697;PMS5003;51124;53.394;-6.294;2023-12-20T13:10:46;0;0;
64697;PMS5003;51124;53.394;-6.294;2023-12-20T13:13:14;1;0;
64697;PMS5003;51124;53.394;-6.294;2023-12-20T13:15:41;0;0;
64697;PMS5003;51124;53.394;-6.294;2023-12-20T13:18:09;1;1;
64697;PMS5003;51124;53.394;-6.294;2023-12-20T13:20:36;1;1;
64697;PMS5003;51124;53.394;-6.294;2023-12-20T13:23:04;2;2;
64697;PMS5003;51124;53.394;-6.294;2023-12-20T13:25:31;1;1;
64697;PMS5003;51124;53.394;-6.294;2023-12-20T13:27:59;1;1;
64697;PMS5003;51124;53.394;-6.294;2023-12-20T13:30:26;2;2;
64697;PMS5003;51124;53.394;-6.294;2023-12-20T13:32:54;0;0;
64697;PMS5003;51124;53.394;-6.294;2023-12-20T13:35:21;1;1;
64697;PMS5003;51124;53.394;-6.294;2023-12-20T13:37:49;1;1;
64697;PMS5003;51124;53.394;-6.294;2023-12-20T13:40:16;1;1;
64697;PMS5003;51124;53.394;-6.294;2023-12-20T13:42:44;1;1;
64697;PMS5003;51124;53.394;-6.294;2023-12-20T13:45:11;1;1;
64697;PMS5003;51124;53.394;-6.294;2023-12-20T13:47:38;1;1;
64697;PMS5003;51124;53.394;-6.294;2023-12-20T13:50:06;1;1;
64697;PMS5003;51124;53.394;-6.294;2023-12-20T13:52:34;1;1;
64697;PMS5003;51124;53.394;-6.294;2023-12-20T13:55:01;1;1;
64697;PMS5003;51124;53.394;-6.294;2023-12-20T13:57:29;1;1;
64697;PMS5003;51124;53.394;-6.294;2023-12-20T13:59:56;0;0;
64697;PMS5003;51124;53.394;-6.294;2023-12-20T14:02:25;0;0;
64697;PMS5003;51124;53.394;-6.294;2023-12-20T14:04:53;3;1;
64697;PMS5003;51124;53.394;-6.294;2023-12-20T14:07:20;2;0;
64697;PMS5003;51124;53.394;-6.294;2023-12-20T14:09:47;2;2;
64697;PMS5003;51124;53.394;-6.294;2023-12-20T14:12:15;2;1;
64697;PMS5003;51124;53.394;-6.294;2023-12-20T14:14:42;1;1;
64697;PMS5003;51124;53.394;-6.294;2023-12-20T14:17:10;0;0;
64697;PMS5003;51124;53.394;-6.294;2023-12-20T14:19:37;1;0;
64697;PMS5003;51124;53.394;-6.294;2023-12-20T14:22:05;2;0;
64697;PMS5003;51124;53.394;-6.294;2023-12-20T14:24:32;1;1;
64697;PMS5003;51124;53.394;-6.294;2023-12-20T14:27:00;1;1;
64697;PMS5003;51124;53.394;-6.294;2023-12-20T14:29:27;1;1;
64697;PMS5003;51124;53.394;-6.294;2023-12-20T14:31:55;0;0;
64697;PMS5003;51124;53.394;-6.294;2023-12-20T14:34:22;1;1;
64697;PMS5003;51124;53.394;-6.294;2023-12-20T14:36:49;1;1;
64697;PMS5003;51124;53.394;-6.294;2023-12-20T14:39:17;1;1;
64697;PMS5003;51124;53.394;-6.294;2023-12-20T14:41:44;0;0;
64697;PMS5003;51124;53.394;-6.294;2023-12-20T14:44:12;1;1;
64697;PMS5003;51124;53.394;-6.294;2023-12-20T14:46:39;2;2;
64697;PMS5003;51124;53.394;-6.294;2023-12-20T14:49:07;2;2;
64697;PMS5003;51124;53.394;-6.294;2023-12-20T14:51:34;1;1;
64697;PMS5003;51124;53.394;-6.294;2023-12-20T14:54:01;1;1;
64697;PMS5003;51124;53.394;-6.294;2023-12-20T14:56:29;0;0;
64697;PMS5003;51124;53.394;-6.294;2023-12-20T14:58:57;1;1;
64697;PMS5003;51124;53.394;-6.294;2023-12-20T15:01:24;1;1;
64697;PMS5003;51124;53.394;-6.294;2023-12-20T15:03:51;0;0;
64697;PMS5003;51124;53.394;-6.294;2023-12-20T15:06:19;1;1;
64697;PMS5003;51124;53.394;-6.294;2023-12-20T15:08:46;0;0;
64697;PMS5003;51124;53.394;-6.294;2023-12-20T15:11:14;1;1;
64697;PMS5003;51124;53.394;-6.294;2023-12-20T15:13:41;1;1;
64697;PMS5003;51124;53.394;-6.294;2023-12-20T15:16:09;1;1;
64697;PMS5003;51124;53.394;-6.294;2023-12-20T15:18:36;0;0;
64697;PMS5003;51124;53.394;-6.294;2023-12-20T15:21:04;3;2;
64697;PMS5003;51124;53.394;-6.294;2023-12-20T15:23:33;1;1;
64697;PMS5003;51124;53.394;-6.294;2023-12-20T15:26:00;3;2;
64697;PMS5003;51124;53.394;-6.294;2023-12-20T15:28:29;1;1;
64697;PMS5003;51124;53.394;-6.294;2023-12-20T15:30:57;1;1;
64697;PMS5003;51124;53.394;-6.294;2023-12-20T15:33:24;1;1;
64697;PMS5003;51124;53.394;-6.294;2023-12-20T15:35:52;1;1;
64697;PMS5003;51124;53.394;-6.294;2023-12-20T15:38:20;1;0;
64697;PMS5003;51124;53.394;-6.294;2023-12-20T15:40:47;0;0;
64697;PMS5003;51124;53.394;-6.294;2023-12-20T15:43:15;1;1;
64697;PMS5003;51124;53.394;-6.294;2023-12-20T15:45:42;0;0;
64697;PMS5003;51124;53.394;-6.294;2023-12-20T15:48:10;1;1;
64697;PMS5003;51124;53.394;-6.294;2023-12-20T15:50:37;1;1;
64697;PMS5003;51124;53.394;-6.294;2023-12-20T15:53:05;3;1;
64697;PMS5003;51124;53.394;-6.294;2023-12-20T15:55:33;0;0;
64697;PMS5003;51124;53.394;-6.294;2023-12-20T15:58:10;1;1;
64697;PMS5003;51124;53.394;-6.294;2023-12-20T16:00:39;2;2;
64697;PMS5003;51124;53.394;-6.294;2023-12-20T16:03:08;1;1;
64697;PMS5003;51124;53.394;-6.294;2023-12-20T16:05:36;0;0;
64697;PMS5003;51124;53.394;-6.294;2023-12-20T16:08:04;1;1;
64697;PMS5003;51124;53.394;-6.294;2023-12-20T16:10:32;0;0;
64697;PMS5003;51124;53.394;-6.294;2023-12-20T16:13:00;2;1;
64697;PMS5003;51124;53.394;-6.294;2023-12-20T16:15:28;0;0;
64697;PMS5003;51124;53.394;-6.294;2023-12-20T16:18:00;2;1;
64697;PMS5003;51124;53.394;-6.294;2023-12-20T16:20:27;3;2;
64697;PMS5003;51124;53.394;-6.294;2023-12-20T16:22:56;1;1;
64697;PMS5003;51124;53.394;-6.294;2023-12-20T16:25:23;1;0;
64697;PMS5003;51124;53.394;-6.294;2023-12-20T16:27:51;2;1;
64697;PMS5003;51124;53.394;-6.294;2023-12-20T16:30:18;3;1;
64697;PMS5003;51124;53.394;-6.294;2023-12-20T16:32:46;0;0;
64697;PMS5003;51124;53.394;-6.294;2023-12-20T16:35:13;0;0;
64697;PMS5003;51124;53.394;-6.294;2023-12-20T16:37:41;1;1;